sensor_id;sensor_type;location;lat;lon;timestamp;P1;P2;P0
79317;PMS7003;68779;50.036;19.964;2023-08-17T00:11:43;23;21;15
79317;PMS7003;68779;50.036;19.964;2023-08-17T00:41:59;27;23;16
79317;PMS7003;68779;50.036;19.964;2023-08-17T01:42:41;26;24;17
79317;PMS7003;68779;50.036;19.964;2023-08-17T02:12:56;24;21;16
79317;PMS7003;68779;50.036;19.964;2023-08-17T02:43:10;20;18;14
79317;PMS7003;68779;50.036;19.964;2023-08-17T03:13:24;21;19;14
79317;PMS7003;68779;50.036;19.964;2023-08-17T03:43:37;23;21;15
79317;PMS7003;68779;50.036;19.964;2023-08-17T04:13:53;24;22;16
79317;PMS7003;68779;50.036;19.964;2023-08-17T04:44:09;21;20;15
79317;PMS7003;68779;50.036;19.964;2023-08-17T05:14:26;19;18;13
79317;PMS7003;68779;50.036;19.964;2023-08-17T06:01:48;26;23;17
79317;PMS7003;68779;50.036;19.964;2023-08-17T06:32:05;29;27;16
79317;PMS7003;68779;50.036;19.964;2023-08-17T07:02:20;24;23;15
79317;PMS7003;68779;50.036;19.964;2023-08-17T07:32:38;19;18;13
79317;PMS7003;68779;50.036;19.964;2023-08-17T08:02:53;16;16;11
79317;PMS7003;68779;50.036;19.964;2023-08-17T08:33:09;16;16;12
79317;PMS7003;68779;50.036;19.964;2023-08-17T09:03:25;15;15;12
79317;PMS7003;68779;50.036;19.964;2023-08-17T09:33:42;16;16;12
79317;PMS7003;68779;50.036;19.964;2023-08-17T10:04:01;16;16;12
79317;PMS7003;68779;50.036;19.964;2023-08-17T10:34:18;12;12;9
79317;PMS7003;68779;50.036;19.964;2023-08-17T11:04:32;16;16;11
79317;PMS7003;68779;50.036;19.964;2023-08-17T11:34:47;9;9;7
79317;PMS7003;68779;50.036;19.964;2023-08-17T12:05:03;9;9;7
79317;PMS7003;68779;50.036;19.964;2023-08-17T12:35:20;5;5;3
79317;PMS7003;68779;50.036;19.964;2023-08-17T13:05:38;3;3;3
79317;PMS7003;68779;50.036;19.964;2023-08-17T13:35:53;4;4;3
79317;PMS7003;68779;50.036;19.964;2023-08-17T14:06:08;3;2;1
79317;PMS7003;68779;50.036;19.964;2023-08-17T14:36:25;5;5;3
79317;PMS7003;68779;50.036;19.964;2023-08-17T15:06:41;3;3;3
79317;PMS7003;68779;50.036;19.964;2023-08-17T15:36:59;4;4;3
79317;PMS7003;68779;50.036;19.964;2023-08-17T16:07:14;5;4;2
79317;PMS7003;68779;50.036;19.964;2023-08-17T16:37:30;3;3;2
79317;PMS7003;68779;50.036;19.964;2023-08-17T17:07:47;6;6;4
79317;PMS7003;68779;50.036;19.964;2023-08-17T17:38:02;4;4;3
79317;PMS7003;68779;50.036;19.964;2023-08-17T18:08:19;6;6;3
79317;PMS7003;68779;50.036;19.964;2023-08-17T18:38:35;7;7;4
79317;PMS7003;68779;50.036;19.964;2023-08-17T19:08:52;9;8;6
79317;PMS7003;68779;50.036;19.964;2023-08-17T19:39:07;8;8;6
79317;PMS7003;68779;50.036;19.964;2023-08-17T20:09:23;22;21;14
79317;PMS7003;68779;50.036;19.964;2023-08-17T20:39:40;10;10;8
79317;PMS7003;68779;50.036;19.964;2023-08-17T21:09:56;8;8;6
79317;PMS7003;68779;50.036;19.964;2023-08-17T21:40:12;9;9;7
79317;PMS7003;68779;50.036;19.964;2023-08-17T22:10:29;9;9;7
79317;PMS7003;68779;50.036;19.964;2023-08-17T22:40:48;10;9;7
79317;PMS7003;68779;50.036;19.964;2023-08-17T23:11:02;8;8;5
79317;PMS7003;68779;50.036;19.964;2023-08-17T23:41:19;10;9;7
